sensor_id;sensor_type;location;lat;lon;timestamp;temperature;humidity
10986;DHT22;5546;48.714;8.738;2023-05-16T00:01:05;15.80;97.80
10986;DHT22;5546;48.714;8.738;2023-05-16T00:03:39;15.80;97.70
10986;DHT22;5546;48.714;8.738;2023-05-16T00:11:01;15.60;97.40
10986;DHT22;5546;48.714;8.738;2023-05-16T00:13:28;15.60;97.60
10986;DHT22;5546;48.714;8.738;2023-05-16T00:15:54;15.60;97.70
10986;DHT22;5546;48.714;8.738;2023-05-16T00:26:00;15.60;97.30
10986;DHT22;5546;48.714;8.738;2023-05-16T00:28:25;15.70;97.10
10986;DHT22;5546;48.714;8.738;2023-05-16T00:30:51;15.70;97.00
10986;DHT22;5546;48.714;8.738;2023-05-16T00:35:43;15.30;97.40
10986;DHT22;5546;48.714;8.738;2023-05-16T00:45:27;15.00;97.60
10986;DHT22;5546;48.714;8.738;2023-05-16T00:52:45;15.00;97.50
10986;DHT22;5546;48.714;8.738;2023-05-16T00:55:10;15.10;97.20
10986;DHT22;5546;48.714;8.738;2023-05-16T00:57:37;14.90;97.20
10986;DHT22;5546;48.714;8.738;2023-05-16T01:00:07;15.00;97.20
10986;DHT22;5546;48.714;8.738;2023-05-16T01:02:35;15.10;97.10
10986;DHT22;5546;48.714;8.738;2023-05-16T01:05:01;14.80;97.20
10986;DHT22;5546;48.714;8.738;2023-05-16T01:07:29;14.90;97.40
10986;DHT22;5546;48.714;8.738;2023-05-16T01:09:55;15.20;96.70
10986;DHT22;5546;48.714;8.738;2023-05-16T01:12:47;15.20;96.40
10986;DHT22;5546;48.714;8.738;2023-05-16T01:15:29;15.00;96.60
10986;DHT22;5546;48.714;8.738;2023-05-16T01:18:10;15.00;97.10
10986;DHT22;5546;48.714;8.738;2023-05-16T01:21:01;14.90;97.20
10986;DHT22;5546;48.714;8.738;2023-05-16T01:23:50;15.10;96.90
10986;DHT22;5546;48.714;8.738;2023-05-16T01:26:21;15.20;96.90
10986;DHT22;5546;48.714;8.738;2023-05-16T01:28:49;15.30;96.60
10986;DHT22;5546;48.714;8.738;2023-05-16T01:33:41;15.30;96.90
10986;DHT22;5546;48.714;8.738;2023-05-16T01:44:34;15.30;96.70
10986;DHT22;5546;48.714;8.738;2023-05-16T01:47:02;15.50;96.20
10986;DHT22;5546;48.714;8.738;2023-05-16T01:52:49;15.10;96.30
10986;DHT22;5546;48.714;8.738;2023-05-16T01:55:21;15.30;96.50
10986;DHT22;5546;48.714;8.738;2023-05-16T01:57:48;15.20;96.30
10986;DHT22;5546;48.714;8.738;2023-05-16T02:00:14;15.40;96.10
10986;DHT22;5546;48.714;8.738;2023-05-16T02:02:40;15.50;96.30
10986;DHT22;5546;48.714;8.738;2023-05-16T02:05:06;15.50;96.30
10986;DHT22;5546;48.714;8.738;2023-05-16T02:09:57;15.80;95.60
10986;DHT22;5546;48.714;8.738;2023-05-16T02:12:24;15.80;95.80
10986;DHT22;5546;48.714;8.738;2023-05-16T02:14:49;15.70;95.80
10986;DHT22;5546;48.714;8.738;2023-05-16T02:17:15;15.40;95.90
10986;DHT22;5546;48.714;8.738;2023-05-16T02:22:06;15.30;96.50
10986;DHT22;5546;48.714;8.738;2023-05-16T02:24:32;15.60;96.20
10986;DHT22;5546;48.714;8.738;2023-05-16T02:26:57;15.50;96.30
10986;DHT22;5546;48.714;8.738;2023-05-16T02:31:49;15.50;96.00
10986;DHT22;5546;48.714;8.738;2023-05-16T02:41:34;15.70;95.40
10986;DHT22;5546;48.714;8.738;2023-05-16T02:44:00;15.70;95.40
10986;DHT22;5546;48.714;8.738;2023-05-16T02:46:28;15.60;95.50
10986;DHT22;5546;48.714;8.738;2023-05-16T02:51:21;15.20;96.00
10986;DHT22;5546;48.714;8.738;2023-05-16T02:56:13;15.00;96.40
10986;DHT22;5546;48.714;8.738;2023-05-16T02:58:39;15.20;96.30
10986;DHT22;5546;48.714;8.738;2023-05-16T03:05:59;15.50;95.80
10986;DHT22;5546;48.714;8.738;2023-05-16T03:10:51;15.80;95.30
10986;DHT22;5546;48.714;8.738;2023-05-16T03:18:08;15.90;95.20
10986;DHT22;5546;48.714;8.738;2023-05-16T03:20:34;15.90;95.10
10986;DHT22;5546;48.714;8.738;2023-05-16T03:22:59;16.00;95.30
10986;DHT22;5546;48.714;8.738;2023-05-16T03:25:25;15.90;95.50
10986;DHT22;5546;48.714;8.738;2023-05-16T03:27:51;15.60;95.20
10986;DHT22;5546;48.714;8.738;2023-05-16T03:30:18;15.60;95.60
10986;DHT22;5546;48.714;8.738;2023-05-16T03:32:44;15.90;95.60
10986;DHT22;5546;48.714;8.738;2023-05-16T03:35:10;16.10;94.90
10986;DHT22;5546;48.714;8.738;2023-05-16T03:37:36;15.90;94.90
10986;DHT22;5546;48.714;8.738;2023-05-16T03:40:02;15.70;95.10
10986;DHT22;5546;48.714;8.738;2023-05-16T03:42:30;15.70;95.50
10986;DHT22;5546;48.714;8.738;2023-05-16T04:14:10;14.70;97.70
10986;DHT22;5546;48.714;8.738;2023-05-16T04:19:01;15.00;97.60
10986;DHT22;5546;48.714;8.738;2023-05-16T04:21:28;15.00;97.90
10986;DHT22;5546;48.714;8.738;2023-05-16T04:23:53;14.80;98.50
10986;DHT22;5546;48.714;8.738;2023-05-16T04:26:19;14.70;98.50
10986;DHT22;5546;48.714;8.738;2023-05-16T04:40:57;14.80;98.70
10986;DHT22;5546;48.714;8.738;2023-05-16T04:50:41;14.70;98.60
10986;DHT22;5546;48.714;8.738;2023-05-16T05:00:25;14.90;98.40
10986;DHT22;5546;48.714;8.738;2023-05-16T05:10:09;15.00;98.80
10986;DHT22;5546;48.714;8.738;2023-05-16T05:15:02;15.20;98.10
10986;DHT22;5546;48.714;8.738;2023-05-16T05:22:20;14.90;98.30
10986;DHT22;5546;48.714;8.738;2023-05-16T05:24:45;15.10;98.20
10986;DHT22;5546;48.714;8.738;2023-05-16T05:27:11;15.10;98.30
10986;DHT22;5546;48.714;8.738;2023-05-16T05:29:37;14.80;98.40
10986;DHT22;5546;48.714;8.738;2023-05-16T05:36:55;15.20;98.50
10986;DHT22;5546;48.714;8.738;2023-05-16T05:44:13;14.60;99.00
10986;DHT22;5546;48.714;8.738;2023-05-16T05:58:49;14.50;99.00
10986;DHT22;5546;48.714;8.738;2023-05-16T06:01:15;14.40;99.20
10986;DHT22;5546;48.714;8.738;2023-05-16T06:03:41;14.60;99.10
10986;DHT22;5546;48.714;8.738;2023-05-16T06:06:07;14.50;99.00
10986;DHT22;5546;48.714;8.738;2023-05-16T06:08:33;14.40;99.30
10986;DHT22;5546;48.714;8.738;2023-05-16T06:15:51;14.70;98.60
10986;DHT22;5546;48.714;8.738;2023-05-16T06:18:17;14.40;99.40
10986;DHT22;5546;48.714;8.738;2023-05-16T06:40:11;14.70;98.80
10986;DHT22;5546;48.714;8.738;2023-05-16T07:02:05;14.50;98.90
10986;DHT22;5546;48.714;8.738;2023-05-16T07:04:31;14.40;98.70
10986;DHT22;5546;48.714;8.738;2023-05-16T07:11:50;14.50;98.60
10986;DHT22;5546;48.714;8.738;2023-05-16T07:14:16;14.50;98.40
10986;DHT22;5546;48.714;8.738;2023-05-16T07:16:41;14.10;98.70
10986;DHT22;5546;48.714;8.738;2023-05-16T07:19:07;14.20;99.30
10986;DHT22;5546;48.714;8.738;2023-05-16T07:33:43;13.90;99.60
10986;DHT22;5546;48.714;8.738;2023-05-16T07:36:11;14.00;99.90
10986;DHT22;5546;48.714;8.738;2023-05-16T07:38:37;14.20;99.40
10986;DHT22;5546;48.714;8.738;2023-05-16T07:55:38;13.80;99.30
10986;DHT22;5546;48.714;8.738;2023-05-16T07:58:04;13.50;99.90
10986;DHT22;5546;48.714;8.738;2023-05-16T08:00:30;13.80;99.90
10986;DHT22;5546;48.714;8.738;2023-05-16T08:02:56;14.20;99.70
10986;DHT22;5546;48.714;8.738;2023-05-16T08:05:22;14.10;99.40
10986;DHT22;5546;48.714;8.738;2023-05-16T08:07:48;14.20;99.50
10986;DHT22;5546;48.714;8.738;2023-05-16T08:10:14;14.20;98.90
10986;DHT22;5546;48.714;8.738;2023-05-16T08:15:06;13.90;99.90
10986;DHT22;5546;48.714;8.738;2023-05-16T08:19:57;14.00;99.40
10986;DHT22;5546;48.714;8.738;2023-05-16T08:22:26;13.90;99.90
10986;DHT22;5546;48.714;8.738;2023-05-16T08:24:51;13.80;99.60
10986;DHT22;5546;48.714;8.738;2023-05-16T08:27:17;13.90;99.90
10986;DHT22;5546;48.714;8.738;2023-05-16T08:34:35;13.90;99.90
10986;DHT22;5546;48.714;8.738;2023-05-16T08:37:01;14.20;99.80
10986;DHT22;5546;48.714;8.738;2023-05-16T08:39:26;14.30;99.50
10986;DHT22;5546;48.714;8.738;2023-05-16T08:41:52;14.20;99.20
10986;DHT22;5546;48.714;8.738;2023-05-16T08:44:18;14.30;99.40
10986;DHT22;5546;48.714;8.738;2023-05-16T08:46:51;14.10;99.40
10986;DHT22;5546;48.714;8.738;2023-05-16T08:49:17;14.00;99.20
10986;DHT22;5546;48.714;8.738;2023-05-16T08:51:45;14.00;99.50
10986;DHT22;5546;48.714;8.738;2023-05-16T08:54:13;13.80;99.90
10986;DHT22;5546;48.714;8.738;2023-05-16T08:56:40;14.10;99.50
10986;DHT22;5546;48.714;8.738;2023-05-16T08:59:06;14.10;99.80
10986;DHT22;5546;48.714;8.738;2023-05-16T09:03:59;14.10;99.90
10986;DHT22;5546;48.714;8.738;2023-05-16T09:06:25;14.40;99.40
10986;DHT22;5546;48.714;8.738;2023-05-16T09:08:52;14.30;99.40
10986;DHT22;5546;48.714;8.738;2023-05-16T09:11:18;14.50;99.30
10986;DHT22;5546;48.714;8.738;2023-05-16T09:13:44;14.40;99.20
10986;DHT22;5546;48.714;8.738;2023-05-16T09:16:14;13.90;99.30
10986;DHT22;5546;48.714;8.738;2023-05-16T09:18:42;14.10;99.60
10986;DHT22;5546;48.714;8.738;2023-05-16T09:21:09;14.10;99.40
10986;DHT22;5546;48.714;8.738;2023-05-16T09:23:35;14.00;99.60
10986;DHT22;5546;48.714;8.738;2023-05-16T09:26:01;14.00;99.90
10986;DHT22;5546;48.714;8.738;2023-05-16T09:28:28;14.20;99.50
10986;DHT22;5546;48.714;8.738;2023-05-16T09:30:54;14.50;99.90
10986;DHT22;5546;48.714;8.738;2023-05-16T09:33:23;14.80;98.90
10986;DHT22;5546;48.714;8.738;2023-05-16T09:35:59;14.80;99.50
10986;DHT22;5546;48.714;8.738;2023-05-16T09:38:26;14.60;98.80
10986;DHT22;5546;48.714;8.738;2023-05-16T09:40:53;14.70;99.30
10986;DHT22;5546;48.714;8.738;2023-05-16T09:43:26;15.00;99.10
10986;DHT22;5546;48.714;8.738;2023-05-16T09:45:52;15.10;98.40
10986;DHT22;5546;48.714;8.738;2023-05-16T09:48:20;14.60;98.40
10986;DHT22;5546;48.714;8.738;2023-05-16T09:50:55;14.30;99.40
10986;DHT22;5546;48.714;8.738;2023-05-16T09:53:29;14.40;99.10
10986;DHT22;5546;48.714;8.738;2023-05-16T09:56:04;14.70;99.00
10986;DHT22;5546;48.714;8.738;2023-05-16T09:58:33;14.90;98.40
10986;DHT22;5546;48.714;8.738;2023-05-16T10:00:59;14.10;98.90
10986;DHT22;5546;48.714;8.738;2023-05-16T10:03:25;14.10;98.90
10986;DHT22;5546;48.714;8.738;2023-05-16T10:05:52;14.30;99.30
10986;DHT22;5546;48.714;8.738;2023-05-16T10:08:20;14.40;98.40
10986;DHT22;5546;48.714;8.738;2023-05-16T10:10:50;14.90;98.50
10986;DHT22;5546;48.714;8.738;2023-05-16T10:13:20;14.90;98.00
10986;DHT22;5546;48.714;8.738;2023-05-16T10:15:47;15.00;97.50
10986;DHT22;5546;48.714;8.738;2023-05-16T10:18:13;14.70;97.70
10986;DHT22;5546;48.714;8.738;2023-05-16T10:20:44;14.70;97.90
10986;DHT22;5546;48.714;8.738;2023-05-16T10:23:18;14.80;98.10
10986;DHT22;5546;48.714;8.738;2023-05-16T10:25:45;14.70;98.10
10986;DHT22;5546;48.714;8.738;2023-05-16T10:28:12;14.60;98.40
10986;DHT22;5546;48.714;8.738;2023-05-16T10:30:40;14.80;98.40
10986;DHT22;5546;48.714;8.738;2023-05-16T10:33:10;14.80;97.70
10986;DHT22;5546;48.714;8.738;2023-05-16T10:35:37;14.30;97.90
10986;DHT22;5546;48.714;8.738;2023-05-16T10:38:04;14.00;99.00
10986;DHT22;5546;48.714;8.738;2023-05-16T10:40:31;13.90;98.80
10986;DHT22;5546;48.714;8.738;2023-05-16T10:43:01;14.00;98.80
10986;DHT22;5546;48.714;8.738;2023-05-16T10:45:30;14.20;98.60
10986;DHT22;5546;48.714;8.738;2023-05-16T10:47:57;14.30;97.90
10986;DHT22;5546;48.714;8.738;2023-05-16T10:50:40;14.40;98.00
10986;DHT22;5546;48.714;8.738;2023-05-16T10:53:14;14.90;97.30
10986;DHT22;5546;48.714;8.738;2023-05-16T10:55:47;15.20;96.40
10986;DHT22;5546;48.714;8.738;2023-05-16T10:58:21;15.50;96.50
10986;DHT22;5546;48.714;8.738;2023-05-16T11:00:47;15.70;96.30
10986;DHT22;5546;48.714;8.738;2023-05-16T11:03:21;15.40;95.80
10986;DHT22;5546;48.714;8.738;2023-05-16T11:05:52;15.30;96.40
10986;DHT22;5546;48.714;8.738;2023-05-16T11:08:18;15.40;95.90
10986;DHT22;5546;48.714;8.738;2023-05-16T11:10:44;15.50;96.30
10986;DHT22;5546;48.714;8.738;2023-05-16T11:13:10;15.70;95.20
10986;DHT22;5546;48.714;8.738;2023-05-16T11:15:35;16.00;95.20
10986;DHT22;5546;48.714;8.738;2023-05-16T11:18:14;16.10;95.40
10986;DHT22;5546;48.714;8.738;2023-05-16T11:20:40;15.70;94.90
10986;DHT22;5546;48.714;8.738;2023-05-16T11:25:48;16.00;95.40
10986;DHT22;5546;48.714;8.738;2023-05-16T11:28:16;16.00;95.70
10986;DHT22;5546;48.714;8.738;2023-05-16T11:30:48;15.20;96.30
10986;DHT22;5546;48.714;8.738;2023-05-16T11:33:14;15.40;96.10
10986;DHT22;5546;48.714;8.738;2023-05-16T11:35:40;15.50;96.20
10986;DHT22;5546;48.714;8.738;2023-05-16T11:38:14;14.90;95.50
10986;DHT22;5546;48.714;8.738;2023-05-16T11:40:43;14.40;97.20
10986;DHT22;5546;48.714;8.738;2023-05-16T11:43:09;14.40;97.70
10986;DHT22;5546;48.714;8.738;2023-05-16T11:45:35;14.90;97.30
10986;DHT22;5546;48.714;8.738;2023-05-16T11:48:02;15.20;96.60
10986;DHT22;5546;48.714;8.738;2023-05-16T11:50:28;15.10;95.60
10986;DHT22;5546;48.714;8.738;2023-05-16T11:52:55;15.20;96.20
10986;DHT22;5546;48.714;8.738;2023-05-16T11:55:23;15.00;95.50
10986;DHT22;5546;48.714;8.738;2023-05-16T11:57:52;15.00;95.80
10986;DHT22;5546;48.714;8.738;2023-05-16T12:00:20;15.10;96.00
10986;DHT22;5546;48.714;8.738;2023-05-16T12:02:46;14.50;96.50
10986;DHT22;5546;48.714;8.738;2023-05-16T12:05:13;14.40;97.10
10986;DHT22;5546;48.714;8.738;2023-05-16T12:07:40;14.00;97.30
10986;DHT22;5546;48.714;8.738;2023-05-16T12:10:08;14.10;97.20
10986;DHT22;5546;48.714;8.738;2023-05-16T12:12:34;14.20;97.00
10986;DHT22;5546;48.714;8.738;2023-05-16T12:15:01;14.00;96.50
10986;DHT22;5546;48.714;8.738;2023-05-16T12:19:54;13.70;97.40
10986;DHT22;5546;48.714;8.738;2023-05-16T12:22:20;13.90;97.20
10986;DHT22;5546;48.714;8.738;2023-05-16T12:24:45;14.20;97.00
10986;DHT22;5546;48.714;8.738;2023-05-16T12:27:11;14.60;95.70
10986;DHT22;5546;48.714;8.738;2023-05-16T12:29:37;14.10;96.00
10986;DHT22;5546;48.714;8.738;2023-05-16T12:32:03;13.90;96.60
10986;DHT22;5546;48.714;8.738;2023-05-16T12:36:58;13.50;97.40
10986;DHT22;5546;48.714;8.738;2023-05-16T12:39:23;13.50;97.50
10986;DHT22;5546;48.714;8.738;2023-05-16T12:41:49;13.10;97.10
10986;DHT22;5546;48.714;8.738;2023-05-16T12:44:16;13.30;97.40
10986;DHT22;5546;48.714;8.738;2023-05-16T12:46:45;13.80;96.70
10986;DHT22;5546;48.714;8.738;2023-05-16T12:49:11;13.90;96.40
10986;DHT22;5546;48.714;8.738;2023-05-16T12:51:37;14.20;96.20
10986;DHT22;5546;48.714;8.738;2023-05-16T12:54:08;13.50;96.10
10986;DHT22;5546;48.714;8.738;2023-05-16T12:56:34;13.70;96.60
10986;DHT22;5546;48.714;8.738;2023-05-16T13:01:25;14.20;95.80
10986;DHT22;5546;48.714;8.738;2023-05-16T13:03:51;14.20;95.70
10986;DHT22;5546;48.714;8.738;2023-05-16T13:06:16;14.40;95.50
10986;DHT22;5546;48.714;8.738;2023-05-16T13:08:42;14.70;95.00
10986;DHT22;5546;48.714;8.738;2023-05-16T13:11:08;14.90;94.80
10986;DHT22;5546;48.714;8.738;2023-05-16T13:13:33;14.90;94.70
10986;DHT22;5546;48.714;8.738;2023-05-16T13:18:25;14.10;95.00
10986;DHT22;5546;48.714;8.738;2023-05-16T13:20:51;14.40;95.00
10986;DHT22;5546;48.714;8.738;2023-05-16T13:23:17;13.70;96.00
10986;DHT22;5546;48.714;8.738;2023-05-16T13:25:43;13.90;96.00
10986;DHT22;5546;48.714;8.738;2023-05-16T13:28:08;14.60;95.50
10986;DHT22;5546;48.714;8.738;2023-05-16T13:30:35;14.80;94.60
10986;DHT22;5546;48.714;8.738;2023-05-16T13:33:01;14.40;94.40
10986;DHT22;5546;48.714;8.738;2023-05-16T13:35:27;14.50;94.90
10986;DHT22;5546;48.714;8.738;2023-05-16T13:37:52;15.10;94.90
10986;DHT22;5546;48.714;8.738;2023-05-16T13:40:18;15.50;93.40
10986;DHT22;5546;48.714;8.738;2023-05-16T13:42:43;15.70;93.30
10986;DHT22;5546;48.714;8.738;2023-05-16T13:45:09;15.80;92.70
10986;DHT22;5546;48.714;8.738;2023-05-16T13:50:01;15.00;93.90
10986;DHT22;5546;48.714;8.738;2023-05-16T13:52:30;15.30;93.90
10986;DHT22;5546;48.714;8.738;2023-05-16T13:54:56;15.60;93.30
10986;DHT22;5546;48.714;8.738;2023-05-16T13:59:48;15.90;91.90
10986;DHT22;5546;48.714;8.738;2023-05-16T14:02:13;15.80;92.20
10986;DHT22;5546;48.714;8.738;2023-05-16T14:04:39;15.90;92.60
10986;DHT22;5546;48.714;8.738;2023-05-16T14:07:05;15.90;92.80
10986;DHT22;5546;48.714;8.738;2023-05-16T14:09:31;15.20;92.30
10986;DHT22;5546;48.714;8.738;2023-05-16T14:11:59;15.30;92.80
10986;DHT22;5546;48.714;8.738;2023-05-16T14:14:27;15.40;92.30
10986;DHT22;5546;48.714;8.738;2023-05-16T14:16:52;15.20;93.10
10986;DHT22;5546;48.714;8.738;2023-05-16T14:19:18;15.20;93.00
10986;DHT22;5546;48.714;8.738;2023-05-16T14:21:43;15.50;92.20
10986;DHT22;5546;48.714;8.738;2023-05-16T14:24:09;15.80;92.00
10986;DHT22;5546;48.714;8.738;2023-05-16T14:26:34;15.10;92.90
10986;DHT22;5546;48.714;8.738;2023-05-16T14:29:00;15.30;92.80
10986;DHT22;5546;48.714;8.738;2023-05-16T14:31:25;15.20;92.70
10986;DHT22;5546;48.714;8.738;2023-05-16T14:33:51;15.30;92.80
10986;DHT22;5546;48.714;8.738;2023-05-16T14:36:16;15.70;92.50
10986;DHT22;5546;48.714;8.738;2023-05-16T14:38:42;15.50;92.50
10986;DHT22;5546;48.714;8.738;2023-05-16T14:41:08;15.10;92.50
10986;DHT22;5546;48.714;8.738;2023-05-16T14:43:33;14.90;93.50
10986;DHT22;5546;48.714;8.738;2023-05-16T14:45:59;15.20;93.30
10986;DHT22;5546;48.714;8.738;2023-05-16T14:48:25;15.30;93.20
10986;DHT22;5546;48.714;8.738;2023-05-16T14:50:50;15.30;93.40
10986;DHT22;5546;48.714;8.738;2023-05-16T14:53:16;15.30;93.30
10986;DHT22;5546;48.714;8.738;2023-05-16T14:55:41;15.60;92.70
10986;DHT22;5546;48.714;8.738;2023-05-16T14:58:07;15.70;92.10
10986;DHT22;5546;48.714;8.738;2023-05-16T15:00:33;15.70;92.40
10986;DHT22;5546;48.714;8.738;2023-05-16T15:02:59;15.80;92.00
10986;DHT22;5546;48.714;8.738;2023-05-16T15:05:24;15.70;92.30
10986;DHT22;5546;48.714;8.738;2023-05-16T15:07:50;15.80;92.40
10986;DHT22;5546;48.714;8.738;2023-05-16T15:10:16;15.60;92.20
10986;DHT22;5546;48.714;8.738;2023-05-16T15:12:42;15.50;92.40
10986;DHT22;5546;48.714;8.738;2023-05-16T15:15:10;15.50;93.40
10986;DHT22;5546;48.714;8.738;2023-05-16T15:17:40;15.90;92.30
10986;DHT22;5546;48.714;8.738;2023-05-16T15:20:07;16.10;91.60
10986;DHT22;5546;48.714;8.738;2023-05-16T15:22:34;15.40;91.50
10986;DHT22;5546;48.714;8.738;2023-05-16T15:24:59;15.40;92.10
10986;DHT22;5546;48.714;8.738;2023-05-16T15:27:25;15.40;91.60
10986;DHT22;5546;48.714;8.738;2023-05-16T15:29:51;15.50;92.20
10986;DHT22;5546;48.714;8.738;2023-05-16T15:32:16;15.40;91.40
10986;DHT22;5546;48.714;8.738;2023-05-16T15:34:42;14.70;92.20
10986;DHT22;5546;48.714;8.738;2023-05-16T15:37:08;14.90;92.10
10986;DHT22;5546;48.714;8.738;2023-05-16T15:39:34;14.50;92.20
10986;DHT22;5546;48.714;8.738;2023-05-16T15:42:00;14.10;93.20
10986;DHT22;5546;48.714;8.738;2023-05-16T15:44:28;14.20;93.10
10986;DHT22;5546;48.714;8.738;2023-05-16T15:46:54;14.30;92.20
10986;DHT22;5546;48.714;8.738;2023-05-16T15:49:20;14.70;92.10
10986;DHT22;5546;48.714;8.738;2023-05-16T15:51:46;14.50;91.80
10986;DHT22;5546;48.714;8.738;2023-05-16T15:54:11;14.70;92.00
10986;DHT22;5546;48.714;8.738;2023-05-16T15:56:37;14.50;92.10
10986;DHT22;5546;48.714;8.738;2023-05-16T15:59:02;14.70;91.80
10986;DHT22;5546;48.714;8.738;2023-05-16T16:01:28;14.80;91.60
10986;DHT22;5546;48.714;8.738;2023-05-16T16:03:54;14.50;91.30
10986;DHT22;5546;48.714;8.738;2023-05-16T16:06:20;15.00;91.40
10986;DHT22;5546;48.714;8.738;2023-05-16T16:08:45;14.90;91.60
10986;DHT22;5546;48.714;8.738;2023-05-16T16:11:11;15.00;91.40
10986;DHT22;5546;48.714;8.738;2023-05-16T16:13:36;15.20;91.00
10986;DHT22;5546;48.714;8.738;2023-05-16T16:16:02;15.20;90.80
10986;DHT22;5546;48.714;8.738;2023-05-16T16:18:28;15.10;91.30
10986;DHT22;5546;48.714;8.738;2023-05-16T16:20:53;15.40;91.70
10986;DHT22;5546;48.714;8.738;2023-05-16T16:23:19;15.40;91.50
10986;DHT22;5546;48.714;8.738;2023-05-16T16:25:44;15.40;91.70
10986;DHT22;5546;48.714;8.738;2023-05-16T16:28:10;15.60;90.50
10986;DHT22;5546;48.714;8.738;2023-05-16T16:30:36;15.30;90.30
10986;DHT22;5546;48.714;8.738;2023-05-16T16:33:02;15.10;90.30
10986;DHT22;5546;48.714;8.738;2023-05-16T16:35:28;14.80;91.00
10986;DHT22;5546;48.714;8.738;2023-05-16T16:37:53;15.00;90.90
10986;DHT22;5546;48.714;8.738;2023-05-16T16:40:20;15.10;91.20
10986;DHT22;5546;48.714;8.738;2023-05-16T16:42:45;15.00;91.00
10986;DHT22;5546;48.714;8.738;2023-05-16T16:45:11;15.30;91.30
10986;DHT22;5546;48.714;8.738;2023-05-16T16:47:36;15.50;90.80
10986;DHT22;5546;48.714;8.738;2023-05-16T16:50:05;15.30;90.80
10986;DHT22;5546;48.714;8.738;2023-05-16T16:54:57;15.10;91.90
10986;DHT22;5546;48.714;8.738;2023-05-16T16:57:23;15.50;91.30
10986;DHT22;5546;48.714;8.738;2023-05-16T16:59:48;15.50;91.60
10986;DHT22;5546;48.714;8.738;2023-05-16T17:02:14;15.50;91.00
10986;DHT22;5546;48.714;8.738;2023-05-16T17:04:40;15.50;91.30
10986;DHT22;5546;48.714;8.738;2023-05-16T17:07:06;15.60;91.10
10986;DHT22;5546;48.714;8.738;2023-05-16T17:09:33;15.80;90.90
10986;DHT22;5546;48.714;8.738;2023-05-16T17:11:59;15.30;89.60
10986;DHT22;5546;48.714;8.738;2023-05-16T17:14:35;15.20;90.00
10986;DHT22;5546;48.714;8.738;2023-05-16T17:19:28;15.60;88.30
10986;DHT22;5546;48.714;8.738;2023-05-16T17:21:53;15.40;90.00
10986;DHT22;5546;48.714;8.738;2023-05-16T17:24:19;15.50;91.00
10986;DHT22;5546;48.714;8.738;2023-05-16T17:26:45;15.60;89.50
10986;DHT22;5546;48.714;8.738;2023-05-16T17:29:10;15.40;90.70
10986;DHT22;5546;48.714;8.738;2023-05-16T17:31:36;15.50;91.00
10986;DHT22;5546;48.714;8.738;2023-05-16T17:34:01;15.60;90.90
10986;DHT22;5546;48.714;8.738;2023-05-16T17:36:27;15.70;91.20
10986;DHT22;5546;48.714;8.738;2023-05-16T17:38:53;15.50;90.80
10986;DHT22;5546;48.714;8.738;2023-05-16T17:41:18;15.50;91.10
10986;DHT22;5546;48.714;8.738;2023-05-16T17:43:45;15.40;91.00
10986;DHT22;5546;48.714;8.738;2023-05-16T17:46:11;15.40;91.20
10986;DHT22;5546;48.714;8.738;2023-05-16T17:48:37;15.50;91.40
10986;DHT22;5546;48.714;8.738;2023-05-16T17:51:02;15.20;91.30
10986;DHT22;5546;48.714;8.738;2023-05-16T17:53:28;15.40;91.10
10986;DHT22;5546;48.714;8.738;2023-05-16T17:55:54;15.30;92.00
10986;DHT22;5546;48.714;8.738;2023-05-16T18:00:46;15.50;91.60
10986;DHT22;5546;48.714;8.738;2023-05-16T18:03:13;15.50;91.90
10986;DHT22;5546;48.714;8.738;2023-05-16T18:05:39;15.30;91.60
10986;DHT22;5546;48.714;8.738;2023-05-16T18:08:04;14.80;92.10
10986;DHT22;5546;48.714;8.738;2023-05-16T18:10:30;14.90;92.40
10986;DHT22;5546;48.714;8.738;2023-05-16T18:12:57;14.90;92.10
10986;DHT22;5546;48.714;8.738;2023-05-16T18:15:23;15.00;92.10
10986;DHT22;5546;48.714;8.738;2023-05-16T18:20:18;14.90;92.30
10986;DHT22;5546;48.714;8.738;2023-05-16T18:22:45;14.80;92.80
10986;DHT22;5546;48.714;8.738;2023-05-16T18:25:12;14.80;93.10
10986;DHT22;5546;48.714;8.738;2023-05-16T18:27:38;14.70;93.10
10986;DHT22;5546;48.714;8.738;2023-05-16T18:30:04;14.70;93.30
10986;DHT22;5546;48.714;8.738;2023-05-16T18:32:30;14.50;93.50
10986;DHT22;5546;48.714;8.738;2023-05-16T18:34:56;14.50;93.50
10986;DHT22;5546;48.714;8.738;2023-05-16T18:37:21;14.50;93.60
10986;DHT22;5546;48.714;8.738;2023-05-16T18:39:47;14.50;93.50
10986;DHT22;5546;48.714;8.738;2023-05-16T18:42:13;13.90;94.30
10986;DHT22;5546;48.714;8.738;2023-05-16T18:44:42;14.10;94.70
10986;DHT22;5546;48.714;8.738;2023-05-16T18:47:07;13.70;95.30
10986;DHT22;5546;48.714;8.738;2023-05-16T18:52:05;13.60;95.60
10986;DHT22;5546;48.714;8.738;2023-05-16T18:56:57;13.80;95.30
10986;DHT22;5546;48.714;8.738;2023-05-16T18:59:23;13.90;95.10
10986;DHT22;5546;48.714;8.738;2023-05-16T19:01:48;13.70;95.40
10986;DHT22;5546;48.714;8.738;2023-05-16T19:04:14;13.60;95.50
10986;DHT22;5546;48.714;8.738;2023-05-16T19:06:40;13.50;95.50
10986;DHT22;5546;48.714;8.738;2023-05-16T19:11:32;13.30;96.00
10986;DHT22;5546;48.714;8.738;2023-05-16T19:13:57;13.30;96.30
10986;DHT22;5546;48.714;8.738;2023-05-16T19:16:23;13.20;96.30
10986;DHT22;5546;48.714;8.738;2023-05-16T19:21:14;13.50;95.50
10986;DHT22;5546;48.714;8.738;2023-05-16T19:23:40;13.40;95.90
10986;DHT22;5546;48.714;8.738;2023-05-16T19:26:05;13.30;95.90
10986;DHT22;5546;48.714;8.738;2023-05-16T19:28:31;13.20;95.90
10986;DHT22;5546;48.714;8.738;2023-05-16T19:30:57;12.90;96.40
10986;DHT22;5546;48.714;8.738;2023-05-16T19:33:23;13.00;96.10
10986;DHT22;5546;48.714;8.738;2023-05-16T19:35:49;13.10;95.90
10986;DHT22;5546;48.714;8.738;2023-05-16T19:38:17;13.20;95.80
10986;DHT22;5546;48.714;8.738;2023-05-16T19:40:44;13.20;95.50
10986;DHT22;5546;48.714;8.738;2023-05-16T19:43:10;13.20;95.40
10986;DHT22;5546;48.714;8.738;2023-05-16T19:45:36;12.80;95.70
10986;DHT22;5546;48.714;8.738;2023-05-16T19:48:02;12.50;96.20
10986;DHT22;5546;48.714;8.738;2023-05-16T19:50:27;12.60;95.80
10986;DHT22;5546;48.714;8.738;2023-05-16T19:52:53;12.60;95.90
10986;DHT22;5546;48.714;8.738;2023-05-16T19:55:19;12.70;95.50
10986;DHT22;5546;48.714;8.738;2023-05-16T20:00:11;12.60;95.70
10986;DHT22;5546;48.714;8.738;2023-05-16T20:02:37;12.50;95.90
10986;DHT22;5546;48.714;8.738;2023-05-16T20:05:03;12.40;96.00
10986;DHT22;5546;48.714;8.738;2023-05-16T20:07:31;12.50;96.00
10986;DHT22;5546;48.714;8.738;2023-05-16T20:10:07;12.40;95.80
10986;DHT22;5546;48.714;8.738;2023-05-16T20:15:05;12.20;95.90
10986;DHT22;5546;48.714;8.738;2023-05-16T20:17:33;12.10;95.90
10986;DHT22;5546;48.714;8.738;2023-05-16T20:19:59;11.90;96.20
10986;DHT22;5546;48.714;8.738;2023-05-16T20:22:25;11.90;96.40
10986;DHT22;5546;48.714;8.738;2023-05-16T20:32:14;11.60;96.50
10986;DHT22;5546;48.714;8.738;2023-05-16T20:34:40;11.40;96.70
10986;DHT22;5546;48.714;8.738;2023-05-16T20:37:06;11.60;96.70
10986;DHT22;5546;48.714;8.738;2023-05-16T20:46:56;11.50;96.50
10986;DHT22;5546;48.714;8.738;2023-05-16T20:49:22;11.10;97.20
10986;DHT22;5546;48.714;8.738;2023-05-16T20:51:48;11.40;96.80
10986;DHT22;5546;48.714;8.738;2023-05-16T20:59:05;11.40;96.70